createdAt,value
2023-04-09T00:01:11.918Z,23.35
2023-04-09T00:06:11.643Z,25.00
2023-04-09T00:11:08.507Z,23.45
2023-04-09T00:16:05.956Z,23.17
2023-04-09T00:21:02.933Z,24.75
2023-04-09T00:26:01.246Z,22.05
2023-04-09T00:30:58.343Z,20.70
2023-04-09T00:35:55.651Z,23.08
2023-04-09T00:40:52.629Z,23.77
2023-04-09T00:45:50.922Z,23.05
2023-04-09T00:50:47.841Z,25.52
2023-04-09T00:55:45.251Z,23.33
2023-04-09T01:00:42.205Z,24.30
2023-04-09T01:05:48.102Z,25.80
2023-04-09T01:10:57.735Z,28.77
2023-04-09T01:15:57.351Z,28.80
2023-04-09T01:20:59.396Z,28.10
2023-04-09T01:26:04.934Z,27.27
2023-04-09T01:31:15.520Z,26.70
2023-04-09T01:36:15.499Z,25.52
2023-04-09T01:41:17.094Z,25.92
2023-04-09T01:46:16.578Z,22.17
2023-04-09T01:51:13.991Z,20.02
2023-04-09T01:56:11.333Z,19.77
2023-04-09T02:01:14.425Z,23.52
2023-04-09T02:06:15.716Z,24.27
2023-04-09T02:11:14.633Z,24.10
2023-04-09T02:16:13.955Z,22.85
2023-04-09T02:21:13.145Z,23.00
2023-04-09T02:26:10.733Z,23.83
2023-04-09T02:31:11.055Z,25.42
2023-04-09T02:36:11.635Z,26.70
2023-04-09T02:41:08.589Z,25.05
2023-04-09T02:46:07.108Z,21.73
2023-04-09T02:51:05.769Z,22.25
2023-04-09T02:56:02.969Z,21.45
2023-04-09T03:00:59.951Z,20.63
2023-04-09T03:05:57.705Z,18.40
2023-04-09T03:10:54.709Z,18.75
2023-04-09T03:15:52.843Z,20.38
2023-04-09T03:20:49.795Z,20.63
2023-04-09T03:25:47.528Z,19.23
2023-04-09T03:30:47.085Z,17.85
2023-04-09T03:35:45.100Z,18.83
2023-04-09T03:40:43.344Z,18.40
2023-04-09T03:45:41.160Z,16.98
2023-04-09T03:50:53.604Z,12.77
2023-04-09T03:55:58.957Z,11.52
2023-04-09T04:00:57.914Z,15.02
2023-04-09T04:06:21.022Z,14.30
2023-04-09T04:11:30.264Z,15.30
2023-04-09T04:16:29.576Z,16.52
2023-04-09T04:21:27.277Z,14.68
2023-04-09T04:26:31.105Z,17.83
2023-04-09T04:31:29.023Z,14.98
2023-04-09T04:36:28.622Z,16.13
2023-04-09T04:41:25.674Z,18.20
2023-04-09T04:46:34.032Z,19.48
2023-04-09T04:51:31.331Z,20.60
2023-04-09T04:56:36.582Z,21.17
2023-04-09T05:01:42.823Z,17.90
2023-04-09T05:06:42.434Z,16.52
2023-04-09T05:11:43.769Z,15.23
2023-04-09T05:16:47.351Z,14.30
2023-04-09T05:22:04.166Z,12.82
2023-04-09T05:27:01.372Z,14.02
2023-04-09T05:32:00.766Z,11.88
2023-04-09T05:37:02.952Z,13.25
2023-04-09T05:42:00.525Z,14.13
2023-04-09T05:47:10.570Z,13.93
2023-04-09T05:57:33.926Z,6.97
2023-04-09T06:02:35.911Z,6.20
2023-04-09T06:07:33.181Z,6.22
2023-04-09T06:12:30.218Z,7.00
2023-04-09T06:17:52.069Z,7.20
2023-04-09T06:22:50.676Z,6.97
2023-04-09T06:27:52.175Z,7.60
2023-04-09T06:32:54.937Z,6.55
2023-04-09T06:37:56.099Z,8.02
2023-04-09T06:42:59.186Z,8.57
2023-04-09T06:48:37.757Z,7.85
2023-04-09T06:53:35.241Z,9.20
2023-04-09T06:58:35.071Z,7.90
2023-04-09T07:03:33.248Z,7.38
2023-04-09T07:08:30.587Z,8.13
2023-04-09T07:18:25.575Z,6.47
2023-04-09T07:23:23.314Z,6.25
2023-04-09T07:28:20.628Z,7.97
2023-04-09T07:33:17.819Z,6.90
2023-04-09T07:38:15.744Z,4.82
2023-04-09T07:43:13.386Z,5.47
2023-04-09T07:48:10.229Z,6.13
2023-04-09T07:53:07.131Z,6.43
2023-04-09T07:58:07.225Z,4.72
2023-04-09T08:03:11.062Z,5.18
2023-04-09T08:08:09.743Z,4.88
2023-04-09T08:13:11.507Z,4.75
2023-04-09T08:18:11.329Z,5.15
2023-04-09T08:23:26.464Z,4.60
2023-04-09T08:28:32.083Z,4.25
2023-04-09T08:33:37.636Z,4.50
2023-04-09T08:38:34.618Z,5.03
2023-04-09T08:43:52.511Z,4.68
2023-04-09T08:48:52.650Z,4.78
2023-04-09T08:54:00.768Z,4.88
2023-04-09T08:59:00.535Z,4.40
2023-04-09T09:04:01.193Z,4.88
2023-04-09T09:09:07.376Z,4.97
2023-04-09T09:14:06.167Z,5.40
2023-04-09T09:19:07.030Z,4.85
2023-04-09T09:24:17.098Z,5.95
2023-04-09T09:29:16.753Z,4.85
2023-04-09T09:34:19.971Z,5.85
2023-04-09T09:39:21.690Z,5.13
2023-04-09T09:44:34.169Z,5.55
2023-04-09T09:49:32.839Z,5.78
2023-04-09T09:54:41.656Z,5.50
2023-04-09T09:59:43.420Z,4.88
2023-04-09T10:04:42.588Z,5.20
2023-04-09T10:09:48.758Z,5.70
2023-04-09T10:14:46.252Z,5.30
2023-04-09T10:19:52.855Z,5.65
2023-04-09T10:24:50.706Z,4.65
2023-04-09T10:29:48.790Z,5.00
2023-04-09T10:34:48.684Z,5.70
2023-04-09T10:39:47.378Z,5.75
2023-04-09T10:44:45.008Z,5.35
2023-04-09T10:49:42.769Z,4.80
2023-04-09T10:54:44.825Z,6.13
2023-04-09T10:59:45.042Z,5.82
2023-04-09T11:05:03.393Z,5.82
2023-04-09T11:10:01.491Z,5.15
2023-04-09T11:14:58.614Z,5.25
2023-04-09T11:19:55.926Z,6.63
2023-04-09T11:24:54.561Z,5.03
2023-04-09T11:30:00.216Z,4.55
2023-04-09T11:34:59.370Z,4.95
2023-04-09T11:39:57.979Z,5.63
2023-04-09T11:44:57.666Z,5.22
2023-04-09T11:49:54.810Z,4.97
2023-04-09T11:54:51.783Z,4.85
2023-04-09T11:59:48.769Z,5.40
2023-04-09T12:04:50.612Z,4.80
2023-04-09T12:09:48.638Z,4.47
2023-04-09T12:14:46.326Z,5.13
2023-04-09T12:19:43.237Z,5.47
2023-04-09T12:24:41.022Z,5.95
2023-04-09T12:29:37.989Z,5.65
2023-04-09T12:34:35.560Z,5.57
2023-04-09T12:39:34.280Z,5.97
2023-04-09T12:44:33.251Z,5.15
2023-04-09T12:49:30.647Z,5.57
2023-04-09T12:54:27.621Z,6.25
2023-04-09T12:59:24.688Z,7.43
2023-04-09T13:04:22.353Z,5.45
2023-04-09T13:09:19.440Z,7.15
2023-04-09T13:14:19.337Z,5.45
2023-04-09T13:19:16.415Z,5.65
2023-04-09T13:24:14.836Z,5.25
2023-04-09T13:29:11.915Z,5.22
2023-04-09T13:34:09.972Z,6.57
2023-04-09T13:39:08.532Z,6.00
2023-04-09T13:44:12.120Z,5.78
2023-04-09T14:35:36.859Z,5.88
2023-04-09T14:40:33.818Z,8.05
2023-04-09T14:45:31.006Z,6.13
2023-04-09T14:50:31.900Z,5.25
2023-04-09T14:55:29.891Z,5.47
2023-04-09T15:00:26.702Z,5.40
2023-04-09T15:05:27.645Z,5.55
2023-04-09T15:10:27.521Z,5.65
2023-04-09T15:15:25.374Z,8.10
2023-04-09T15:30:04.080Z,6.70
2023-04-09T15:35:06.852Z,8.40
2023-04-09T15:40:08.686Z,6.35
2023-04-09T15:45:07.018Z,5.75
2023-04-09T15:50:04.753Z,6.90
2023-04-09T15:55:06.067Z,8.23
2023-04-09T16:00:11.747Z,6.60
2023-04-09T16:10:32.593Z,10.32
2023-04-09T16:15:37.367Z,10.63
2023-04-09T16:20:58.910Z,8.27
2023-04-09T16:26:19.480Z,8.05
2023-04-09T16:31:23.052Z,9.13
2023-04-09T16:36:56.328Z,12.23
2023-04-09T16:48:24.887Z,10.32
2023-04-09T16:53:26.151Z,9.10
2023-04-09T16:58:32.518Z,10.48
2023-04-09T17:03:58.102Z,9.52
2023-04-09T17:15:19.515Z,10.70
2023-04-09T17:20:41.758Z,10.10
2023-04-09T17:26:05.033Z,10.70
2023-04-09T17:31:46.099Z,10.35
2023-04-09T17:43:12.878Z,9.80
2023-04-09T18:01:08.110Z,11.43
2023-04-09T18:12:06.585Z,13.10
2023-04-09T18:17:28.619Z,11.52
2023-04-09T18:36:17.779Z,12.18
2023-04-09T18:48:38.459Z,13.13
2023-04-09T18:59:57.995Z,12.73
2023-04-09T19:05:32.037Z,13.40
2023-04-09T19:11:06.520Z,13.98
2023-04-09T19:23:53.261Z,13.30
2023-04-09T19:30:19.086Z,15.35
2023-04-09T19:35:41.575Z,13.20
2023-04-09T19:41:42.087Z,14.43
2023-04-09T19:46:49.326Z,14.85
2023-04-09T19:52:20.632Z,13.70
2023-04-09T19:57:53.162Z,13.43
2023-04-09T20:03:21.524Z,13.40
2023-04-09T20:08:31.390Z,9.82
2023-04-09T20:13:35.415Z,10.70
2023-04-09T20:25:29.870Z,12.20
2023-04-09T20:30:48.993Z,12.10
2023-04-09T20:42:16.365Z,12.45
2023-04-09T20:47:22.878Z,12.05
2023-04-09T20:52:34.360Z,12.45
2023-04-09T20:58:13.097Z,11.68
2023-04-09T21:03:23.938Z,11.85
2023-04-09T21:20:16.862Z,13.13
2023-04-09T21:30:57.495Z,14.10
2023-04-09T21:36:24.575Z,15.75
2023-04-09T21:41:34.410Z,15.38
2023-04-09T21:46:40.118Z,16.92
2023-04-09T21:51:51.157Z,15.13
2023-04-09T21:57:28.126Z,18.50
2023-04-09T22:02:34.968Z,15.77
2023-04-09T22:07:39.778Z,18.00
2023-04-09T22:12:54.685Z,17.35
2023-04-09T22:18:01.991Z,19.60
2023-04-09T22:23:02.778Z,18.23
2023-04-09T22:28:04.853Z,19.45
2023-04-09T22:33:09.200Z,18.52
2023-04-09T22:38:15.417Z,19.50
2023-04-09T22:43:12.906Z,19.75
2023-04-09T22:48:16.306Z,18.63
2023-04-09T22:58:40.651Z,17.55
2023-04-09T23:03:52.094Z,16.02
2023-04-09T23:15:01.719Z,18.08
2023-04-09T23:20:19.686Z,17.93
2023-04-09T23:25:44.114Z,19.83
2023-04-09T23:30:48.345Z,19.58
2023-04-09T23:36:03.347Z,21.48
2023-04-09T23:41:23.540Z,20.27
2023-04-09T23:46:27.994Z,18.55
2023-04-09T23:51:35.057Z,19.45
2023-04-09T23:56:44.488Z,20.77
